Fithian, Illinois
Current Conditions -  °F | °C
As of 7:15 PM on Sunday 21 Dec 2014 (Local Time) from KDNV Reporting Station
Clear Clear  
Wind Chill: 26°   Ceiling: Unl
Heat Index: 32°   Visibility: 7mi
Dew Point: 29°   Wind: 7mph
Humidity: 88%   Direction: 120°ESE
Pressure: 30.06"   Gusts: NA
Location:  40.11°N, 87.87°W
Report Text: KDNV 220115Z AUTO 12006KT 7SM CLR 00/M02 A3006 RMK AO2 T00001017
Loading
Personal Weather Stations






























Interactive Weather Map New forecast layout! Learn more

10-Day Weather Forecast

Advertisements
Track Severe Weather on mobile